sensor_id;sensor_type;location;lat;lon;timestamp;P1;durP1;ratioP1;P2;durP2;ratioP2
24739;SDS011;45234;48.148;17.128;2023-02-22T00:00:56;4.10;;;2.58;;
24739;SDS011;45234;48.148;17.128;2023-02-22T00:03:29;3.45;;;2.53;;
24739;SDS011;45234;48.148;17.128;2023-02-22T00:06:00;8.88;;;3.22;;
24739;SDS011;45234;48.148;17.128;2023-02-22T00:08:30;4.78;;;3.08;;
24739;SDS011;45234;48.148;17.128;2023-02-22T00:11:00;6.40;;;2.95;;
24739;SDS011;45234;48.148;17.128;2023-02-22T00:13:28;5.53;;;2.78;;
24739;SDS011;45234;48.148;17.128;2023-02-22T00:15:56;6.93;;;2.80;;
24739;SDS011;45234;48.148;17.128;2023-02-22T00:18:25;5.32;;;2.95;;
24739;SDS011;45234;48.148;17.128;2023-02-22T00:20:56;4.13;;;2.83;;
24739;SDS011;45234;48.148;17.128;2023-02-22T00:23:25;5.40;;;2.83;;
24739;SDS011;45234;48.148;17.128;2023-02-22T00:25:54;3.05;;;2.60;;
24739;SDS011;45234;48.148;17.128;2023-02-22T00:28:23;4.65;;;2.83;;
24739;SDS011;45234;48.148;17.128;2023-02-22T00:30:50;3.55;;;2.60;;
24739;SDS011;45234;48.148;17.128;2023-02-22T00:33:20;3.58;;;2.80;;
24739;SDS011;45234;48.148;17.128;2023-02-22T00:35:47;4.35;;;2.63;;
24739;SDS011;45234;48.148;17.128;2023-02-22T00:38:15;3.45;;;2.60;;
24739;SDS011;45234;48.148;17.128;2023-02-22T00:40:43;3.42;;;2.50;;
24739;SDS011;45234;48.148;17.128;2023-02-22T00:43:10;4.53;;;2.85;;
24739;SDS011;45234;48.148;17.128;2023-02-22T00:45:38;4.47;;;2.35;;
24739;SDS011;45234;48.148;17.128;2023-02-22T00:48:05;4.65;;;2.60;;
24739;SDS011;45234;48.148;17.128;2023-02-22T00:50:33;4.43;;;2.60;;
24739;SDS011;45234;48.148;17.128;2023-02-22T00:53:01;4.60;;;2.50;;
24739;SDS011;45234;48.148;17.128;2023-02-22T00:55:31;4.30;;;2.55;;
24739;SDS011;45234;48.148;17.128;2023-02-22T00:58:00;5.13;;;2.42;;
24739;SDS011;45234;48.148;17.128;2023-02-22T01:00:31;3.60;;;2.67;;
24739;SDS011;45234;48.148;17.128;2023-02-22T01:03:05;3.80;;;2.65;;
24739;SDS011;45234;48.148;17.128;2023-02-22T01:05:35;6.40;;;2.92;;
24739;SDS011;45234;48.148;17.128;2023-02-22T01:08:03;5.47;;;2.50;;
24739;SDS011;45234;48.148;17.128;2023-02-22T01:10:32;3.00;;;2.70;;
24739;SDS011;45234;48.148;17.128;2023-02-22T01:12:59;5.25;;;2.72;;
24739;SDS011;45234;48.148;17.128;2023-02-22T01:15:29;3.00;;;2.42;;
24739;SDS011;45234;48.148;17.128;2023-02-22T01:17:57;4.32;;;2.80;;
24739;SDS011;45234;48.148;17.128;2023-02-22T01:20:24;3.90;;;2.78;;
24739;SDS011;45234;48.148;17.128;2023-02-22T01:22:53;4.45;;;2.65;;
24739;SDS011;45234;48.148;17.128;2023-02-22T01:25:26;4.22;;;2.70;;
24739;SDS011;45234;48.148;17.128;2023-02-22T01:27:56;5.53;;;3.10;;
24739;SDS011;45234;48.148;17.128;2023-02-22T01:30:25;5.88;;;3.00;;
24739;SDS011;45234;48.148;17.128;2023-02-22T01:33:00;5.38;;;3.08;;
24739;SDS011;45234;48.148;17.128;2023-02-22T01:35:31;5.13;;;3.28;;
24739;SDS011;45234;48.148;17.128;2023-02-22T01:37:59;5.18;;;3.10;;
24739;SDS011;45234;48.148;17.128;2023-02-22T01:40:29;3.95;;;2.42;;
24739;SDS011;45234;48.148;17.128;2023-02-22T01:43:00;5.85;;;3.17;;
24739;SDS011;45234;48.148;17.128;2023-02-22T01:48:33;5.03;;;3.75;;
24739;SDS011;45234;48.148;17.128;2023-02-22T01:51:03;5.32;;;3.53;;
24739;SDS011;45234;48.148;17.128;2023-02-22T01:53:38;5.38;;;2.75;;
24739;SDS011;45234;48.148;17.128;2023-02-22T01:56:06;4.55;;;3.08;;
24739;SDS011;45234;48.148;17.128;2023-02-22T01:58:34;7.18;;;2.97;;
24739;SDS011;45234;48.148;17.128;2023-02-22T02:01:05;4.57;;;3.20;;
24739;SDS011;45234;48.148;17.128;2023-02-22T02:03:33;4.63;;;2.80;;
24739;SDS011;45234;48.148;17.128;2023-02-22T02:06:04;4.28;;;3.15;;
24739;SDS011;45234;48.148;17.128;2023-02-22T02:11:26;4.20;;;3.08;;
24739;SDS011;45234;48.148;17.128;2023-02-22T02:13:57;5.90;;;3.58;;
24739;SDS011;45234;48.148;17.128;2023-02-22T02:16:27;4.78;;;2.90;;
24739;SDS011;45234;48.148;17.128;2023-02-22T02:19:25;6.97;;;3.60;;
24739;SDS011;45234;48.148;17.128;2023-02-22T02:30:27;5.28;;;3.22;;
24739;SDS011;45234;48.148;17.128;2023-02-22T02:36:00;5.38;;;3.53;;
24739;SDS011;45234;48.148;17.128;2023-02-22T02:38:48;5.10;;;3.65;;
24739;SDS011;45234;48.148;17.128;2023-02-22T02:41:31;5.22;;;3.10;;
24739;SDS011;45234;48.148;17.128;2023-02-22T02:44:07;4.70;;;3.38;;
24739;SDS011;45234;48.148;17.128;2023-02-22T02:51:40;4.10;;;3.25;;
24739;SDS011;45234;48.148;17.128;2023-02-22T02:54:10;6.53;;;3.83;;
24739;SDS011;45234;48.148;17.128;2023-02-22T02:56:39;6.78;;;3.90;;
24739;SDS011;45234;48.148;17.128;2023-02-22T02:59:22;8.65;;;4.13;;
24739;SDS011;45234;48.148;17.128;2023-02-22T03:07:48;6.30;;;3.88;;
24739;SDS011;45234;48.148;17.128;2023-02-22T03:17:03;7.38;;;3.60;;
24739;SDS011;45234;48.148;17.128;2023-02-22T03:19:53;7.07;;;3.60;;
24739;SDS011;45234;48.148;17.128;2023-02-22T03:22:36;4.70;;;3.17;;
24739;SDS011;45234;48.148;17.128;2023-02-22T03:25:26;5.07;;;3.50;;
24739;SDS011;45234;48.148;17.128;2023-02-22T03:28:01;6.05;;;3.47;;
24739;SDS011;45234;48.148;17.128;2023-02-22T03:30:44;5.50;;;3.03;;
24739;SDS011;45234;48.148;17.128;2023-02-22T03:33:21;4.75;;;3.40;;
24739;SDS011;45234;48.148;17.128;2023-02-22T03:36:04;3.55;;;2.47;;
24739;SDS011;45234;48.148;17.128;2023-02-22T03:38:53;6.07;;;3.22;;
24739;SDS011;45234;48.148;17.128;2023-02-22T03:41:23;4.35;;;2.55;;
24739;SDS011;45234;48.148;17.128;2023-02-22T03:43:59;4.18;;;3.00;;
24739;SDS011;45234;48.148;17.128;2023-02-22T03:46:34;7.33;;;2.83;;
24739;SDS011;45234;48.148;17.128;2023-02-22T03:49:05;3.95;;;2.72;;
24739;SDS011;45234;48.148;17.128;2023-02-22T03:51:55;5.00;;;3.28;;
24739;SDS011;45234;48.148;17.128;2023-02-22T03:54:24;4.32;;;2.95;;
24739;SDS011;45234;48.148;17.128;2023-02-22T03:56:53;5.78;;;3.13;;
24739;SDS011;45234;48.148;17.128;2023-02-22T03:59:24;5.30;;;3.15;;
24739;SDS011;45234;48.148;17.128;2023-02-22T04:01:52;5.97;;;3.00;;
24739;SDS011;45234;48.148;17.128;2023-02-22T04:04:20;5.85;;;3.53;;
24739;SDS011;45234;48.148;17.128;2023-02-22T04:06:49;4.15;;;2.78;;
24739;SDS011;45234;48.148;17.128;2023-02-22T04:09:17;4.55;;;2.90;;
24739;SDS011;45234;48.148;17.128;2023-02-22T04:11:46;4.40;;;2.65;;
24739;SDS011;45234;48.148;17.128;2023-02-22T04:14:13;3.33;;;2.85;;
24739;SDS011;45234;48.148;17.128;2023-02-22T04:16:40;6.13;;;3.20;;
24739;SDS011;45234;48.148;17.128;2023-02-22T04:19:08;5.10;;;3.10;;
24739;SDS011;45234;48.148;17.128;2023-02-22T04:21:36;5.90;;;3.20;;
24739;SDS011;45234;48.148;17.128;2023-02-22T04:24:06;5.22;;;3.10;;
24739;SDS011;45234;48.148;17.128;2023-02-22T04:26:33;7.20;;;3.65;;
24739;SDS011;45234;48.148;17.128;2023-02-22T04:29:01;4.45;;;2.72;;
24739;SDS011;45234;48.148;17.128;2023-02-22T04:31:34;7.15;;;4.22;;
24739;SDS011;45234;48.148;17.128;2023-02-22T04:34:02;6.20;;;3.80;;
24739;SDS011;45234;48.148;17.128;2023-02-22T04:36:32;8.13;;;5.15;;
24739;SDS011;45234;48.148;17.128;2023-02-22T04:38:59;12.57;;;5.93;;
24739;SDS011;45234;48.148;17.128;2023-02-22T04:41:28;17.88;;;8.23;;
24739;SDS011;45234;48.148;17.128;2023-02-22T04:43:56;18.33;;;7.80;;
24739;SDS011;45234;48.148;17.128;2023-02-22T04:46:24;17.50;;;7.68;;
24739;SDS011;45234;48.148;17.128;2023-02-22T04:48:51;19.65;;;8.13;;
24739;SDS011;45234;48.148;17.128;2023-02-22T04:51:22;13.23;;;6.88;;
24739;SDS011;45234;48.148;17.128;2023-02-22T04:54:06;12.60;;;6.75;;
24739;SDS011;45234;48.148;17.128;2023-02-22T04:56:37;13.15;;;5.72;;
24739;SDS011;45234;48.148;17.128;2023-02-22T04:59:04;9.85;;;5.30;;
24739;SDS011;45234;48.148;17.128;2023-02-22T05:01:31;13.75;;;5.65;;
24739;SDS011;45234;48.148;17.128;2023-02-22T05:04:03;7.80;;;5.22;;
24739;SDS011;45234;48.148;17.128;2023-02-22T05:06:31;15.50;;;6.45;;
24739;SDS011;45234;48.148;17.128;2023-02-22T05:08:58;12.45;;;6.93;;
24739;SDS011;45234;48.148;17.128;2023-02-22T05:11:26;11.25;;;5.68;;
24739;SDS011;45234;48.148;17.128;2023-02-22T05:13:53;17.63;;;9.15;;
24739;SDS011;45234;48.148;17.128;2023-02-22T05:16:20;15.77;;;9.02;;
24739;SDS011;45234;48.148;17.128;2023-02-22T05:18:47;14.48;;;6.68;;
24739;SDS011;45234;48.148;17.128;2023-02-22T05:21:14;8.77;;;5.15;;
24739;SDS011;45234;48.148;17.128;2023-02-22T05:23:41;10.57;;;5.60;;
24739;SDS011;45234;48.148;17.128;2023-02-22T05:26:08;12.07;;;6.47;;
24739;SDS011;45234;48.148;17.128;2023-02-22T05:28:36;10.95;;;6.50;;
24739;SDS011;45234;48.148;17.128;2023-02-22T05:31:03;8.15;;;4.95;;
24739;SDS011;45234;48.148;17.128;2023-02-22T05:33:32;9.80;;;5.32;;
24739;SDS011;45234;48.148;17.128;2023-02-22T05:35:59;9.60;;;5.25;;
24739;SDS011;45234;48.148;17.128;2023-02-22T05:38:26;7.97;;;5.57;;
24739;SDS011;45234;48.148;17.128;2023-02-22T05:40:53;11.65;;;5.20;;
24739;SDS011;45234;48.148;17.128;2023-02-22T05:43:21;11.85;;;5.88;;
24739;SDS011;45234;48.148;17.128;2023-02-22T05:45:48;9.73;;;5.07;;
24739;SDS011;45234;48.148;17.128;2023-02-22T05:48:15;10.65;;;6.10;;
24739;SDS011;45234;48.148;17.128;2023-02-22T05:50:41;9.25;;;5.53;;
24739;SDS011;45234;48.148;17.128;2023-02-22T05:53:08;8.10;;;5.43;;
24739;SDS011;45234;48.148;17.128;2023-02-22T05:55:35;11.02;;;5.00;;
24739;SDS011;45234;48.148;17.128;2023-02-22T05:58:02;11.50;;;5.25;;
24739;SDS011;45234;48.148;17.128;2023-02-22T06:00:30;7.82;;;5.30;;
24739;SDS011;45234;48.148;17.128;2023-02-22T06:05:32;8.15;;;5.03;;
24739;SDS011;45234;48.148;17.128;2023-02-22T06:08:00;11.65;;;5.10;;
24739;SDS011;45234;48.148;17.128;2023-02-22T06:10:28;8.38;;;5.30;;
24739;SDS011;45234;48.148;17.128;2023-02-22T06:12:55;10.18;;;5.25;;
24739;SDS011;45234;48.148;17.128;2023-02-22T06:15:23;9.98;;;4.72;;
24739;SDS011;45234;48.148;17.128;2023-02-22T06:17:51;13.35;;;5.53;;
24739;SDS011;45234;48.148;17.128;2023-02-22T06:20:20;9.77;;;5.40;;
24739;SDS011;45234;48.148;17.128;2023-02-22T06:22:48;9.77;;;4.90;;
24739;SDS011;45234;48.148;17.128;2023-02-22T06:25:17;7.35;;;5.45;;
24739;SDS011;45234;48.148;17.128;2023-02-22T06:27:45;7.57;;;5.18;;
24739;SDS011;45234;48.148;17.128;2023-02-22T06:30:12;9.05;;;5.35;;
24739;SDS011;45234;48.148;17.128;2023-02-22T06:32:41;7.07;;;5.18;;
24739;SDS011;45234;48.148;17.128;2023-02-22T06:35:07;12.25;;;4.88;;
24739;SDS011;45234;48.148;17.128;2023-02-22T06:37:34;8.93;;;6.00;;
24739;SDS011;45234;48.148;17.128;2023-02-22T06:40:01;10.13;;;5.75;;
24739;SDS011;45234;48.148;17.128;2023-02-22T06:42:30;9.07;;;5.10;;
24739;SDS011;45234;48.148;17.128;2023-02-22T06:44:57;11.30;;;5.70;;
24739;SDS011;45234;48.148;17.128;2023-02-22T06:47:24;12.25;;;4.97;;
24739;SDS011;45234;48.148;17.128;2023-02-22T06:49:52;13.40;;;6.32;;
24739;SDS011;45234;48.148;17.128;2023-02-22T06:52:22;10.05;;;5.97;;
24739;SDS011;45234;48.148;17.128;2023-02-22T06:54:50;11.88;;;6.90;;
24739;SDS011;45234;48.148;17.128;2023-02-22T06:57:17;12.20;;;6.18;;
24739;SDS011;45234;48.148;17.128;2023-02-22T06:59:44;13.10;;;6.65;;
24739;SDS011;45234;48.148;17.128;2023-02-22T07:02:11;12.23;;;5.80;;
24739;SDS011;45234;48.148;17.128;2023-02-22T07:04:38;10.60;;;5.78;;
24739;SDS011;45234;48.148;17.128;2023-02-22T07:07:08;13.05;;;5.57;;
24739;SDS011;45234;48.148;17.128;2023-02-22T07:09:34;9.98;;;5.43;;
24739;SDS011;45234;48.148;17.128;2023-02-22T07:12:01;15.60;;;6.90;;
24739;SDS011;45234;48.148;17.128;2023-02-22T07:14:28;14.38;;;5.38;;
24739;SDS011;45234;48.148;17.128;2023-02-22T07:16:55;10.07;;;5.15;;
24739;SDS011;45234;48.148;17.128;2023-02-22T07:19:22;12.02;;;6.38;;
24739;SDS011;45234;48.148;17.128;2023-02-22T07:21:49;14.20;;;7.05;;
24739;SDS011;45234;48.148;17.128;2023-02-22T07:24:22;12.90;;;6.15;;
24739;SDS011;45234;48.148;17.128;2023-02-22T07:26:50;10.48;;;5.93;;
24739;SDS011;45234;48.148;17.128;2023-02-22T07:29:18;12.60;;;5.10;;
24739;SDS011;45234;48.148;17.128;2023-02-22T07:31:47;11.18;;;5.95;;
24739;SDS011;45234;48.148;17.128;2023-02-22T07:34:14;9.13;;;5.20;;
24739;SDS011;45234;48.148;17.128;2023-02-22T07:36:41;8.38;;;5.18;;
24739;SDS011;45234;48.148;17.128;2023-02-22T07:39:08;10.98;;;4.57;;
24739;SDS011;45234;48.148;17.128;2023-02-22T07:41:35;7.43;;;4.78;;
24739;SDS011;45234;48.148;17.128;2023-02-22T07:44:12;7.75;;;5.40;;
24739;SDS011;45234;48.148;17.128;2023-02-22T07:46:38;11.80;;;5.38;;
24739;SDS011;45234;48.148;17.128;2023-02-22T07:49:05;9.38;;;5.43;;
24739;SDS011;45234;48.148;17.128;2023-02-22T07:51:32;9.80;;;4.93;;
24739;SDS011;45234;48.148;17.128;2023-02-22T07:53:59;8.60;;;5.25;;
24739;SDS011;45234;48.148;17.128;2023-02-22T07:56:25;10.50;;;4.65;;
24739;SDS011;45234;48.148;17.128;2023-02-22T07:58:52;10.02;;;5.22;;
24739;SDS011;45234;48.148;17.128;2023-02-22T08:01:19;8.82;;;4.93;;
24739;SDS011;45234;48.148;17.128;2023-02-22T08:03:46;9.70;;;4.90;;
24739;SDS011;45234;48.148;17.128;2023-02-22T08:06:13;10.10;;;4.85;;
24739;SDS011;45234;48.148;17.128;2023-02-22T08:08:41;10.63;;;5.25;;
24739;SDS011;45234;48.148;17.128;2023-02-22T08:11:08;10.57;;;5.40;;
24739;SDS011;45234;48.148;17.128;2023-02-22T08:13:34;9.43;;;5.07;;
24739;SDS011;45234;48.148;17.128;2023-02-22T08:16:02;9.40;;;5.10;;
24739;SDS011;45234;48.148;17.128;2023-02-22T08:18:30;10.32;;;4.68;;
24739;SDS011;45234;48.148;17.128;2023-02-22T08:20:56;7.82;;;4.63;;
24739;SDS011;45234;48.148;17.128;2023-02-22T08:23:24;11.68;;;5.30;;
24739;SDS011;45234;48.148;17.128;2023-02-22T08:25:51;7.28;;;4.88;;
24739;SDS011;45234;48.148;17.128;2023-02-22T08:28:19;10.50;;;5.38;;
24739;SDS011;45234;48.148;17.128;2023-02-22T08:30:48;16.45;;;5.70;;
24739;SDS011;45234;48.148;17.128;2023-02-22T08:33:16;8.80;;;5.68;;
24739;SDS011;45234;48.148;17.128;2023-02-22T08:35:45;10.23;;;5.05;;
24739;SDS011;45234;48.148;17.128;2023-02-22T08:38:20;9.73;;;5.47;;
24739;SDS011;45234;48.148;17.128;2023-02-22T08:40:52;7.05;;;5.25;;
24739;SDS011;45234;48.148;17.128;2023-02-22T08:43:19;9.32;;;5.78;;
24739;SDS011;45234;48.148;17.128;2023-02-22T08:45:46;8.95;;;5.72;;
24739;SDS011;45234;48.148;17.128;2023-02-22T08:48:14;7.88;;;5.80;;
24739;SDS011;45234;48.148;17.128;2023-02-22T08:50:41;13.75;;;5.40;;
24739;SDS011;45234;48.148;17.128;2023-02-22T08:53:09;10.63;;;5.88;;
24739;SDS011;45234;48.148;17.128;2023-02-22T08:55:38;14.23;;;5.45;;
24739;SDS011;45234;48.148;17.128;2023-02-22T08:58:07;14.10;;;5.72;;
24739;SDS011;45234;48.148;17.128;2023-02-22T09:00:35;9.25;;;5.53;;
24739;SDS011;45234;48.148;17.128;2023-02-22T09:03:08;16.98;;;6.20;;
24739;SDS011;45234;48.148;17.128;2023-02-22T09:05:38;16.30;;;6.43;;
24739;SDS011;45234;48.148;17.128;2023-02-22T09:08:05;17.58;;;6.95;;
24739;SDS011;45234;48.148;17.128;2023-02-22T09:10:32;12.48;;;6.35;;
24739;SDS011;45234;48.148;17.128;2023-02-22T09:12:59;17.45;;;6.03;;
24739;SDS011;45234;48.148;17.128;2023-02-22T09:15:28;17.80;;;6.60;;
24739;SDS011;45234;48.148;17.128;2023-02-22T09:17:56;13.85;;;6.55;;
24739;SDS011;45234;48.148;17.128;2023-02-22T09:20:24;11.50;;;6.28;;
24739;SDS011;45234;48.148;17.128;2023-02-22T09:22:53;16.90;;;6.60;;
24739;SDS011;45234;48.148;17.128;2023-02-22T09:25:20;12.10;;;6.13;;
24739;SDS011;45234;48.148;17.128;2023-02-22T09:27:48;17.33;;;6.68;;
24739;SDS011;45234;48.148;17.128;2023-02-22T09:30:27;15.05;;;5.97;;
24739;SDS011;45234;48.148;17.128;2023-02-22T09:33:00;10.88;;;6.43;;
24739;SDS011;45234;48.148;17.128;2023-02-22T09:35:36;11.02;;;6.65;;
24739;SDS011;45234;48.148;17.128;2023-02-22T09:38:07;8.23;;;6.03;;
24739;SDS011;45234;48.148;17.128;2023-02-22T09:40:36;9.43;;;5.90;;
24739;SDS011;45234;48.148;17.128;2023-02-22T09:51:26;8.15;;;5.78;;
24739;SDS011;45234;48.148;17.128;2023-02-22T09:54:01;8.38;;;6.13;;
24739;SDS011;45234;48.148;17.128;2023-02-22T09:56:31;9.07;;;6.07;;
24739;SDS011;45234;48.148;17.128;2023-02-22T09:59:00;8.98;;;5.38;;
24739;SDS011;45234;48.148;17.128;2023-02-22T10:01:31;8.50;;;6.13;;
24739;SDS011;45234;48.148;17.128;2023-02-22T10:04:18;7.25;;;5.78;;
24739;SDS011;45234;48.148;17.128;2023-02-22T10:07:03;7.97;;;5.68;;
24739;SDS011;45234;48.148;17.128;2023-02-22T10:09:32;9.18;;;5.45;;
24739;SDS011;45234;48.148;17.128;2023-02-22T10:12:10;7.55;;;4.97;;
24739;SDS011;45234;48.148;17.128;2023-02-22T10:25:26;8.55;;;3.92;;
24739;SDS011;45234;48.148;17.128;2023-02-22T10:28:01;5.85;;;3.17;;
24739;SDS011;45234;48.148;17.128;2023-02-22T10:30:52;9.90;;;3.60;;
24739;SDS011;45234;48.148;17.128;2023-02-22T10:33:27;6.75;;;4.43;;
24739;SDS011;45234;48.148;17.128;2023-02-22T10:35:56;6.47;;;4.60;;
24739;SDS011;45234;48.148;17.128;2023-02-22T10:38:25;8.27;;;3.05;;
24739;SDS011;45234;48.148;17.128;2023-02-22T10:43:36;5.60;;;2.83;;
24739;SDS011;45234;48.148;17.128;2023-02-22T10:46:08;4.25;;;2.38;;
24739;SDS011;45234;48.148;17.128;2023-02-22T10:48:39;4.10;;;3.00;;
24739;SDS011;45234;48.148;17.128;2023-02-22T10:51:08;7.78;;;5.78;;
24739;SDS011;45234;48.148;17.128;2023-02-22T10:53:36;6.70;;;5.88;;
24739;SDS011;45234;48.148;17.128;2023-02-22T10:58:53;5.93;;;4.30;;
24739;SDS011;45234;48.148;17.128;2023-02-22T11:01:24;6.65;;;4.07;;
24739;SDS011;45234;48.148;17.128;2023-02-22T11:06:42;10.98;;;6.22;;
24739;SDS011;45234;48.148;17.128;2023-02-22T11:09:17;10.38;;;7.30;;
24739;SDS011;45234;48.148;17.128;2023-02-22T11:11:49;6.30;;;5.60;;
24739;SDS011;45234;48.148;17.128;2023-02-22T11:14:36;6.55;;;5.32;;
24739;SDS011;45234;48.148;17.128;2023-02-22T11:17:07;8.73;;;5.63;;
24739;SDS011;45234;48.148;17.128;2023-02-22T11:19:38;10.82;;;6.75;;
24739;SDS011;45234;48.148;17.128;2023-02-22T11:22:18;11.90;;;8.20;;
24739;SDS011;45234;48.148;17.128;2023-02-22T11:24:51;8.73;;;6.47;;
24739;SDS011;45234;48.148;17.128;2023-02-22T11:27:31;11.75;;;7.05;;
24739;SDS011;45234;48.148;17.128;2023-02-22T11:32:54;6.95;;;5.68;;
24739;SDS011;45234;48.148;17.128;2023-02-22T11:38:10;9.40;;;6.00;;
24739;SDS011;45234;48.148;17.128;2023-02-22T11:40:47;7.40;;;5.32;;
24739;SDS011;45234;48.148;17.128;2023-02-22T11:43:33;8.57;;;6.43;;
24739;SDS011;45234;48.148;17.128;2023-02-22T11:46:04;9.10;;;6.68;;
24739;SDS011;45234;48.148;17.128;2023-02-22T11:48:37;9.05;;;7.00;;
24739;SDS011;45234;48.148;17.128;2023-02-22T11:53:55;7.38;;;6.50;;
24739;SDS011;45234;48.148;17.128;2023-02-22T11:59:23;7.30;;;5.55;;
24739;SDS011;45234;48.148;17.128;2023-02-22T12:10:58;7.85;;;5.40;;
24739;SDS011;45234;48.148;17.128;2023-02-22T12:16:31;7.18;;;5.50;;
24739;SDS011;45234;48.148;17.128;2023-02-22T12:19:14;6.10;;;5.50;;
24739;SDS011;45234;48.148;17.128;2023-02-22T12:21:57;7.95;;;6.25;;
24739;SDS011;45234;48.148;17.128;2023-02-22T12:24:39;6.68;;;5.63;;
24739;SDS011;45234;48.148;17.128;2023-02-22T12:27:16;10.73;;;6.57;;
24739;SDS011;45234;48.148;17.128;2023-02-22T12:29:54;8.25;;;5.60;;
24739;SDS011;45234;48.148;17.128;2023-02-22T12:33:18;7.35;;;5.65;;
24739;SDS011;45234;48.148;17.128;2023-02-22T12:35:31;5.97;;;5.22;;
24739;SDS011;45234;48.148;17.128;2023-02-22T12:46:52;7.00;;;6.05;;
24739;SDS011;45234;48.148;17.128;2023-02-22T12:52:00;8.10;;;6.00;;
24739;SDS011;45234;48.148;17.128;2023-02-22T12:57:25;7.60;;;6.00;;
24739;SDS011;45234;48.148;17.128;2023-02-22T13:00:14;11.07;;;6.30;;
24739;SDS011;45234;48.148;17.128;2023-02-22T13:02:52;8.02;;;5.90;;
24739;SDS011;45234;48.148;17.128;2023-02-22T13:05:43;11.88;;;6.10;;
24739;SDS011;45234;48.148;17.128;2023-02-22T13:11:22;5.63;;;5.10;;
24739;SDS011;45234;48.148;17.128;2023-02-22T13:17:06;7.60;;;5.45;;
24739;SDS011;45234;48.148;17.128;2023-02-22T13:30:18;9.35;;;5.28;;
24739;SDS011;45234;48.148;17.128;2023-02-22T13:32:56;8.57;;;5.70;;
24739;SDS011;45234;48.148;17.128;2023-02-22T13:35:56;13.00;;;5.85;;
24739;SDS011;45234;48.148;17.128;2023-02-22T13:44:26;6.57;;;5.55;;
24739;SDS011;45234;48.148;17.128;2023-02-22T13:52:29;10.35;;;7.30;;
24739;SDS011;45234;48.148;17.128;2023-02-22T13:55:03;9.63;;;5.93;;
24739;SDS011;45234;48.148;17.128;2023-02-22T13:57:37;8.88;;;6.07;;
24739;SDS011;45234;48.148;17.128;2023-02-22T14:08:51;12.20;;;7.22;;
24739;SDS011;45234;48.148;17.128;2023-02-22T14:13:24;8.82;;;6.75;;
24739;SDS011;45234;48.148;17.128;2023-02-22T14:18:27;9.40;;;6.22;;
24739;SDS011;45234;48.148;17.128;2023-02-22T14:21:10;7.03;;;5.25;;
24739;SDS011;45234;48.148;17.128;2023-02-22T14:28:52;9.40;;;5.88;;
24739;SDS011;45234;48.148;17.128;2023-02-22T14:31:27;9.10;;;6.18;;
24739;SDS011;45234;48.148;17.128;2023-02-22T14:34:15;10.75;;;6.15;;
24739;SDS011;45234;48.148;17.128;2023-02-22T14:41:39;10.57;;;6.32;;
24739;SDS011;45234;48.148;17.128;2023-02-22T14:44:20;13.48;;;6.03;;
24739;SDS011;45234;48.148;17.128;2023-02-22T14:46:51;7.77;;;5.37;;
24739;SDS011;45234;48.148;17.128;2023-02-22T14:49:21;10.15;;;5.00;;
24739;SDS011;45234;48.148;17.128;2023-02-22T14:51:54;8.38;;;5.03;;
24739;SDS011;45234;48.148;17.128;2023-02-22T14:54:34;7.75;;;5.00;;
24739;SDS011;45234;48.148;17.128;2023-02-22T14:57:45;7.47;;;5.32;;
24739;SDS011;45234;48.148;17.128;2023-02-22T15:00:36;6.07;;;5.15;;
24739;SDS011;45234;48.148;17.128;2023-02-22T15:06:04;5.32;;;4.55;;
24739;SDS011;45234;48.148;17.128;2023-02-22T15:08:44;9.13;;;4.72;;
24739;SDS011;45234;48.148;17.128;2023-02-22T15:11:47;9.65;;;4.72;;
24739;SDS011;45234;48.148;17.128;2023-02-22T15:14:24;11.43;;;5.97;;
24739;SDS011;45234;48.148;17.128;2023-02-22T15:16:53;10.07;;;6.53;;
24739;SDS011;45234;48.148;17.128;2023-02-22T15:19:27;7.50;;;6.28;;
24739;SDS011;45234;48.148;17.128;2023-02-22T15:22:03;14.30;;;6.63;;
24739;SDS011;45234;48.148;17.128;2023-02-22T15:24:33;7.57;;;6.35;;
24739;SDS011;45234;48.148;17.128;2023-02-22T15:27:06;8.55;;;7.18;;
24739;SDS011;45234;48.148;17.128;2023-02-22T15:29:40;12.75;;;7.65;;
24739;SDS011;45234;48.148;17.128;2023-02-22T15:32:18;13.80;;;6.95;;
24739;SDS011;45234;48.148;17.128;2023-02-22T15:35:19;13.45;;;7.05;;
24739;SDS011;45234;48.148;17.128;2023-02-22T15:38:00;23.05;;;7.75;;
24739;SDS011;45234;48.148;17.128;2023-02-22T15:40:31;11.68;;;6.60;;
24739;SDS011;45234;48.148;17.128;2023-02-22T15:43:00;9.10;;;6.53;;
24739;SDS011;45234;48.148;17.128;2023-02-22T15:45:29;11.85;;;7.03;;
24739;SDS011;45234;48.148;17.128;2023-02-22T15:47:59;11.20;;;7.00;;
24739;SDS011;45234;48.148;17.128;2023-02-22T15:50:28;12.30;;;6.65;;
24739;SDS011;45234;48.148;17.128;2023-02-22T15:56:40;12.15;;;6.40;;
24739;SDS011;45234;48.148;17.128;2023-02-22T15:59:11;11.80;;;6.55;;
24739;SDS011;45234;48.148;17.128;2023-02-22T16:01:47;13.70;;;7.03;;
24739;SDS011;45234;48.148;17.128;2023-02-22T16:04:21;8.73;;;7.07;;
24739;SDS011;45234;48.148;17.128;2023-02-22T16:06:51;11.30;;;6.55;;
24739;SDS011;45234;48.148;17.128;2023-02-22T16:09:27;8.85;;;6.40;;
24739;SDS011;45234;48.148;17.128;2023-02-22T16:12:08;10.93;;;6.55;;
24739;SDS011;45234;48.148;17.128;2023-02-22T16:14:49;11.73;;;7.68;;
24739;SDS011;45234;48.148;17.128;2023-02-22T16:19:50;17.00;;;7.47;;
24739;SDS011;45234;48.148;17.128;2023-02-22T16:24:52;10.95;;;7.68;;
24739;SDS011;45234;48.148;17.128;2023-02-22T16:27:40;12.65;;;8.02;;
24739;SDS011;45234;48.148;17.128;2023-02-22T16:30:28;13.70;;;8.65;;
24739;SDS011;45234;48.148;17.128;2023-02-22T16:32:57;10.75;;;8.38;;
24739;SDS011;45234;48.148;17.128;2023-02-22T16:35:30;11.05;;;8.10;;
24739;SDS011;45234;48.148;17.128;2023-02-22T16:38:00;13.77;;;8.73;;
24739;SDS011;45234;48.148;17.128;2023-02-22T16:40:30;11.90;;;8.15;;
24739;SDS011;45234;48.148;17.128;2023-02-22T16:43:07;13.93;;;9.05;;
24739;SDS011;45234;48.148;17.128;2023-02-22T16:45:37;12.95;;;9.23;;
24739;SDS011;45234;48.148;17.128;2023-02-22T16:48:17;15.10;;;9.65;;
24739;SDS011;45234;48.148;17.128;2023-02-22T16:50:52;16.13;;;9.73;;
24739;SDS011;45234;48.148;17.128;2023-02-22T16:53:21;14.32;;;9.98;;
24739;SDS011;45234;48.148;17.128;2023-02-22T16:55:50;18.30;;;9.75;;
24739;SDS011;45234;48.148;17.128;2023-02-22T16:58:22;14.63;;;9.13;;
24739;SDS011;45234;48.148;17.128;2023-02-22T17:00:54;13.27;;;9.43;;
24739;SDS011;45234;48.148;17.128;2023-02-22T17:03:22;14.88;;;10.55;;
24739;SDS011;45234;48.148;17.128;2023-02-22T17:05:50;17.05;;;11.93;;
24739;SDS011;45234;48.148;17.128;2023-02-22T17:08:17;18.27;;;12.25;;
24739;SDS011;45234;48.148;17.128;2023-02-22T17:10:44;20.27;;;11.13;;
24739;SDS011;45234;48.148;17.128;2023-02-22T17:13:18;17.70;;;11.50;;
24739;SDS011;45234;48.148;17.128;2023-02-22T17:15:51;19.42;;;11.45;;
24739;SDS011;45234;48.148;17.128;2023-02-22T17:18:20;17.15;;;12.38;;
24739;SDS011;45234;48.148;17.128;2023-02-22T17:20:50;21.83;;;13.27;;
24739;SDS011;45234;48.148;17.128;2023-02-22T17:23:17;19.88;;;12.90;;
24739;SDS011;45234;48.148;17.128;2023-02-22T17:25:55;20.08;;;13.57;;
24739;SDS011;45234;48.148;17.128;2023-02-22T17:28:29;20.98;;;13.88;;
24739;SDS011;45234;48.148;17.128;2023-02-22T17:30:57;25.05;;;16.02;;
24739;SDS011;45234;48.148;17.128;2023-02-22T17:33:28;25.38;;;16.38;;
24739;SDS011;45234;48.148;17.128;2023-02-22T17:35:58;22.75;;;14.85;;
24739;SDS011;45234;48.148;17.128;2023-02-22T17:38:28;21.50;;;14.43;;
24739;SDS011;45234;48.148;17.128;2023-02-22T17:40:56;22.08;;;14.98;;